Slots 777

Canivete
Data Hora VISIB (KM) Cobertura(OITAVOS) DD Vento(º) Intensidade (NÓS) TEMP DO AR (º) Temp do Ponto de Orvalho(ºC) Pressão (hPa) TEMP MAX (ºC) TEMP MIN (ºC)
20/05/2021 12:00 4/10 6 27.00 25.70 1008.50
20/05/2021 00:00 0/0,05 27.50 25.30 1007.40
19/05/2021 18:00 4/10 6 29.00 26.40 1005.10
19/05/2021 12:00 4/10 6 26.50 25.70 1008.50
19/05/2021 00:00 0/0,05 26.50 24.30 1008.50
18/05/2021 12:00 4/10 7 27.00 25.70 1006.40
18/05/2021 12:00 4/10 8 26.00 24.70 1009.80
18/05/2021 00:00 0,05/0,2 25.50 23.30 1008.60
17/05/2021 18:00 4/10 8 26.50 25.70 1007.50
17/05/2021 12:00 2/4 8 25.50 24.70 1009.50
17/05/2021 00:00 0,2 26.00 24.70 1007.70
16/05/2021 18:00 4/10 7 26.50 25.70 1006.40
16/05/2021 12:00 4/10 8 25.50 24.70 1008.60
16/05/2021 00:00 0,2/0,5 25.50 23.30 1007.70
15/05/2021 18:00 2/4 8 26.00 24.70 1006.60
15/05/2021 00:00 0,05/0,2 27.00 25.70 1006.40
14/05/2021 18:00 4/10 4 28.00 26.70 1005.20
14/05/2021 12:00 4/10 7 26.00 24.70 1008.60
14/05/2021 00:00 0/0,05 25.50 24.70 1007.70
13/05/2021 18:00 2/4 8 26.00 24.70 1006.60
13/05/2021 12:00 4/10 8 26.00 24.70 1008.60
13/05/2021 00:00 0/0,05 26.50 24.30 1008.50
12/05/2021 18:00 4/10 7 26.50 25.70 1005.40
12/05/2021 12:00 4/10 8 25.50 24.70 1008.60
12/05/2021 00:00 0,05/0,2 25.50 23.30 1007.70
11/05/2021 18:00 2/4 8 26.00 24.70 1006.60
11/05/2021 12:00 4/10 8 26.00 24.70 1008.60
10/05/2021 18:00 2/4 8 27.00 25.70 1006.40
11/05/2021 00:00 0,1 26.50 24.30 1007.50
10/05/2021 12:00 4/10 7 27.00 25.70 1009.40
10/05/2021 00:00 0,2/0,5 27.00 24.30 1008.50
09/05/2021 18:00 4/10 6 27.50 25.30 1006.20
09/05/2021 12:00 4/10 8 27.00 24.30 1010.40
09/05/2021 00:00 0,2/0,5 26.50 24.30 1009.40
08/05/2021 18:00 4/10 8 27.00 25.70 1007.50
08/05/2021 12:00 2/4 7 27.00 25.70 1009.40
08/05/2021 00:00 28.00 25.30 1008.30
07/05/2021 18:00 4/10 6 29.00 26.40 1006.20
07/05/2021 12:00 4/10 6 26.50 25.70 1009.40
07/05/2021 00:00 0/0,05 27.00 24.30 1008.50
06/05/2021 12:00 4/10 7 26.50 24.30 1010.40
06/05/2021 00:00 0,05/0,2 27.00 24.30 1008.50
05/05/2021 18:00 4 7 27.50 25.30 1006.20
05/05/2021 00:00 0,2/0,5 25.50 24.70 1008.60
04/05/2021 12:00 4/10 8 26.00 24.70 1009.50
04/05/2021 00:00 26.50 24.30 1006.40
03/05/2021 18:00 4/10 7 27.00 25.70 1005.40
03/05/2021 12:00 2/4 8 25.50 23.30 1008.60
03/05/2021 00:00 0,05/0,2 27.00 25.70 1007.50
02/05/2021 18:00 4/10 6 28.00 26.70 1006.20
02/05/2021 12:00 4/10 7 26.00 24.70 1008.60
02/05/2021 00:00 0,2/0,5 26.50 25.70 1007.50
01/05/2021 18:00 4/10 7 2.00 25.70 1007.50
01/05/2021 12:00 2/4 8 26.00 24.70 1009.50
01/05/2021 00:00 0,2 27.00 24.30 1007.50
30/04/2021 18:00 4/10 6 28.50 25.00 1006.20
30/04/2021 12:00 2/4 8 26.50 24.30 1009.40
30/04/2021 00:00 0,2/0,5 28.00 25.30 1007.40
29/04/2021 18:00 4/10 6 29.00 26.40 1005.10
29/04/2021 12:00 4/10 6 27.50 26.70 1007.40
29/04/2021 00:00 27.00 24.30 1006.40
28/04/2021 18:00 4/10 6 29.00 26.40 1004.20
28/04/2021 12:00 4/10 6 27.50 26.70 1007.40
28/04/2021 00:00 0,1/0,2 27.50 24.00 1005.20
27/04/2021 18:00 4/10 6 29.00 26.40 1004.50
27/04/2021 12:00 4/10 6 27.50 26.70 1007.40
27/04/2021 00:00 0,2/0,5 27.00 24.30 1005.40
26/04/2021 18:00 4/10 6 29.00 25.00 1003.30
26/04/2021 12:00 4/10 6 27.00 25.70 1007.50
25/04/2021 18:00 4/10 7 27.50 26.70 1004.30
25/04/2021 12:00 4/10 7 27.00 24.70 1007.50
25/04/2021 00:00 0,2 26.00 24.70 1006.60
25/04/2021 00:00 0,2 26.00 24.70 1006.60
24/04/2021 18:00 4/10 7 27.00 25.70 1004.50
24/04/2021 12:00 4/10 7 27.00 24.70 1007.50
24/04/2021 00:00 0/0,05 26.00 24.70 1006.60
23/04/2021 18:00 4/10 6 27.00 25.70 1004.50
23/04/2021 12:00 1/2 8 25.00 23.60 1008.90
23/04/2021 00:00 0,5/1 25.50 24.70 1006.90
22/04/2021 18:00 2/4 8 25.00 23.60 1005.80
22/04/2021 12:00 2/4 8 25.00 23.60 1008.90
22/04/2021 00:00 0,2/0,5 25.50 24.70 1007.70
21/04/2021 18:00 20/50 4 100 8 31.00 27.10 1011.20
21/04/2021 18:00 2/4 7 26.00 24.70 1005.50
21/04/2021 12:00 2/4 7 25.50 24.70 1009.50
21/04/2021 00:00 20/50 80 10 21.00 18.00 1023.70 23.00
21/04/2021 00:00 25.50 24.70 1007.70
20/04/2021 18:00 4/10 6 25.50 24.70 1006.60
20/04/2021 12:00 2/4 8 25.00 23.60
20/04/2021 00:00 0,2/0,5 25.50 23.30 1008.60
19/04/2021 18:00 1/2 8 26.00 24.70 1005.50
19/04/2021 12:00 4/10 6 26.00 24.70 1008.60
19/04/2021 00:00 0/0,05 25.00 23.60 1006.90
18/04/2021 18:00 2/4 8 25.00 23.60 1006.90
18/04/2021 12:00 2/4 8 25.00 23.60 1008.90
18/04/2021 00:00 0/0,05 26.00 24.70 1005.50
17/04/2021 18:00 4/10 7 26.50 25.70 1004.50
17/04/2021 12:00 4/10 7 26.00 24.70 1006.60
17/04/2021 00:00 0/0,05 25.50 24.70 100.50
16/04/2021 18:00 4/10 8 26.00 24.70 1004.60
Slots 777 Mapa do site